| time (UTC) | temp F | wind direction | speed MPH | gust MPH | rain 1hr in | rain 24hr in | rain mn in | humidity % | barometer mb |
| 20260510230735 | 57 | 269 | 6.0 | 9.0 | 0.00 | 0.00 | 0.00 | 35 | 1017.8 |
| 20260510230231 | 58 | 275 | 8.0 | 10.0 | 0.00 | 0.00 | 0.00 | 36 | 1017.8 |
| 20260510225728 | 58 | 267 | 4.0 | 5.0 | 0.00 | 0.00 | 0.00 | 35 | 1018.0 |
| 20260510225223 | 58 | 160 | 2.0 | 2.0 | 0.00 | 0.00 | 0.00 | 39 | 1018.0 |
| 20260510224719 | 58 | 269 | 8.0 | 8.0 | 0.00 | 0.00 | 0.00 | 38 | 1018.0 |
| 20260510224215 | 57 | 239 | 6.0 | 8.0 | 0.00 | 0.00 | 0.00 | 36 | 1018.0 |
| 20260510223714 | 57 | 192 | 0.0 | 1.0 | 0.00 | 0.00 | 0.00 | 41 | 1018.0 |
| 20260510223210 | 57 | 276 | 7.0 | 8.0 | 0.00 | 0.00 | 0.00 | 39 | 1018.2 |
| 20260510222707 | 57 | 266 | 6.0 | 8.0 | 0.00 | 0.00 | 0.00 | 36 | 1018.0 |
| 20260510222204 | 58 | 245 | 9.0 | 10.0 | 0.00 | 0.00 | 0.00 | 35 | 1018.0 |
| 20260510221700 | 58 | 220 | 3.0 | 3.0 | 0.00 | 0.00 | 0.00 | 37 | 1017.8 |
| 20260510221157 | 58 | 240 | 5.0 | 8.0 | 0.00 | 0.00 | 0.00 | 40 | 1017.9 |
| 20260510220654 | 57 | 193 | 1.0 | 1.0 | 0.00 | 0.00 | 0.00 | 37 | 1018.0 |
| 20260510220154 | 57 | 203 | 2.0 | 2.0 | 0.00 | 0.00 | 0.00 | 38 | 1017.7 |
| 20260510215651 | 57 | 264 | 7.0 | 9.0 | 0.00 | 0.00 | 0.00 | 38 | 1017.9 |
| 20260510215150 | 58 | 218 | 2.0 | 2.0 | 0.00 | 0.00 | 0.00 | 37 | 1017.7 |
| 20260510214646 | 58 | 293 | 8.0 | 10.0 | 0.00 | 0.00 | 0.00 | 37 | 1017.4 |
| 20260510214143 | 58 | 240 | 3.0 | 5.0 | 0.00 | 0.00 | 0.00 | 40 | 1017.5 |
| 20260510213640 | 57 | 263 | 3.0 | 5.0 | 0.00 | 0.00 | 0.00 | 37 | 1017.5 |
| 20260510213136 | 57 | 283 | 11.0 | 13.0 | 0.00 | 0.00 | 0.00 | 36 | 1017.5 |
| 20260510212633 | 58 | 248 | 7.0 | 9.0 | 0.00 | 0.00 | 0.00 | 37 | 1017.5 |
| 20260510212130 | 58 | 289 | 7.0 | 8.0 | 0.00 | 0.00 | 0.00 | 35 | 1017.4 |
| 20260510211626 | 57 | 226 | 4.0 | 6.0 | 0.00 | 0.00 | 0.00 | 37 | 1017.5 |
| 20260510211121 | 57 | 226 | 6.0 | 9.0 | 0.00 | 0.00 | 0.00 | 38 | 1017.1 |
| 20260510210618 | 57 | 230 | 3.0 | 5.0 | 0.00 | 0.00 | 0.00 | 39 | 1017.2 |
| 20260510210113 | 57 | 266 | 5.0 | 7.0 | 0.00 | 0.00 | 0.00 | 39 | 1017.2 |
| 20260510205612 | 58 | 274 | 9.0 | 11.0 | 0.00 | 0.00 | 0.00 | 38 | 1017.0 |
| 20260510205108 | 57 | 264 | 5.0 | 7.0 | 0.00 | 0.00 | 0.00 | 38 | 1017.0 |
| 20260510204604 | 57 | 218 | 4.0 | 5.0 | 0.00 | 0.00 | 0.00 | 38 | 1017.2 |
| 20260510204102 | 57 | 210 | 2.0 | 3.0 | 0.00 | 0.00 | 0.00 | 38 | 1016.8 |
| 20260510203559 | 57 | 286 | 5.0 | 7.0 | 0.00 | 0.00 | 0.00 | 37 | 1017.0 |
| 20260510203055 | 57 | 285 | 9.0 | 11.0 | 0.00 | 0.00 | 0.00 | 38 | 1017.1 |
| 20260510202554 | 57 | 276 | 7.0 | 10.0 | 0.00 | 0.00 | 0.00 | 43 | 1017.1 |
| 20260510202051 | 57 | 291 | 6.0 | 9.0 | 0.00 | 0.00 | 0.00 | 41 | 1017.5 |
| 20260510201548 | 57 | 252 | 5.0 | 7.0 | 0.00 | 0.00 | 0.00 | 41 | 1017.2 |
| 20260510201045 | 58 | 275 | 5.0 | 6.0 | 0.00 | 0.00 | 0.00 | 39 | 1017.1 |
| 20260510200540 | 57 | 213 | 2.0 | 2.0 | 0.00 | 0.00 | 0.00 | 37 | 1017.2 |
| 20260510200039 | 57 | 200 | 2.0 | 2.0 | 0.00 | 0.00 | 0.00 | 40 | 1017.0 |
| 20260510195536 | 57 | 269 | 9.0 | 10.0 | 0.00 | 0.00 | 0.00 | 37 | 1017.5 |
| 20260510195032 | 59 | 273 | 8.0 | 10.0 | 0.00 | 0.00 | 0.00 | 36 | 1017.5 |
| 20260510194527 | 58 | 250 | 3.0 | 5.0 | 0.00 | 0.00 | 0.00 | 37 | 1017.1 |
| 20260510194024 | 57 | 203 | 3.0 | 5.0 | 0.00 | 0.00 | 0.00 | 38 | 1017.5 |
| 20260510193519 | 57 | 278 | 3.0 | 5.0 | 0.00 | 0.00 | 0.00 | 39 | 1017.2 |
| 20260510193015 | 56 | 245 | 1.0 | 2.0 | 0.00 | 0.00 | 0.00 | 36 | 1017.1 |
| 20260510192509 | 56 | 261 | 7.0 | 10.0 | 0.00 | 0.00 | 0.00 | 46 | 1017.4 |
| 20260510192006 | 56 | 273 | 11.0 | 11.0 | 0.00 | 0.00 | 0.00 | 41 | 1017.4 |
| 20260510191502 | 56 | 234 | 5.0 | 7.0 | 0.00 | 0.00 | 0.00 | 36 | 1017.7 |
| 20260510190959 | 57 | 234 | 12.0 | 14.0 | 0.00 | 0.00 | 0.00 | 42 | 1017.4 |
| 20260510190456 | 57 | 267 | 6.0 | 7.0 | 0.00 | 0.00 | 0.00 | 36 | 1017.6 |
| 20260510185953 | 56 | 273 | 7.0 | 10.0 | 0.00 | 0.00 | 0.00 | 37 | 1017.7 |
| 20260510185450 | 56 | 276 | 5.0 | 8.0 | 0.00 | 0.00 | 0.00 | 41 | 1017.5 |
| 20260510184947 | 56 | 271 | 5.0 | 6.0 | 0.00 | 0.00 | 0.00 | 38 | 1017.8 |
| 20260510184444 | 56 | 231 | 5.0 | 7.0 | 0.00 | 0.00 | 0.00 | 36 | 1017.5 |
| 20260510183939 | 57 | 278 | 7.0 | 8.0 | 0.00 | 0.00 | 0.00 | 38 | 1017.5 |
| 20260510183436 | 57 | 204 | 3.0 | 5.0 | 0.00 | 0.00 | 0.00 | 38 | 1017.7 |
| 20260510182935 | 58 | 228 | 4.0 | 5.0 | 0.00 | 0.00 | 0.00 | 36 | 1017.6 |
| 20260510182432 | 56 | 249 | 2.0 | 2.0 | 0.00 | 0.00 | 0.00 | 36 | 1017.5 |
| 20260510181927 | 56 | 248 | 4.0 | 5.0 | 0.00 | 0.00 | 0.00 | 38 | 1017.6 |
| 20260510181426 | 58 | 266 | 8.0 | 14.0 | 0.00 | 0.00 | 0.00 | 34 | 1017.5 |
| 20260510180921 | 57 | 254 | 11.0 | 13.0 | 0.00 | 0.00 | 0.00 | 36 | 1017.1 |
| 20260510180419 | 56 | 287 | 7.0 | 9.0 | 0.00 | 0.00 | 0.00 | 36 | 1017.1 |
| 20260510175915 | 56 | 260 | 8.0 | 10.0 | 0.00 | 0.00 | 0.00 | 39 | 1017.4 |
| 20260510175411 | 57 | 276 | 5.0 | 8.0 | 0.00 | 0.00 | 0.00 | 37 | 1017.2 |
| 20260510174907 | 55 | 170 | 0.0 | 1.0 | 0.00 | 0.00 | 0.00 | 39 | 1017.2 |
| 20260510174406 | 55 | 212 | 2.0 | 3.0 | 0.00 | 0.00 | 0.00 | 38 | 1017.2 |
| 20260510173902 | 58 | 277 | 5.0 | 6.0 | 0.00 | 0.00 | 0.00 | 34 | 1017.1 |
| 20260510173357 | 57 | 188 | 1.0 | 1.0 | 0.00 | 0.00 | 0.00 | 34 | 1017.4 |
| 20260510172854 | 57 | 60 | 2.0 | 3.0 | 0.00 | 0.00 | 0.00 | 34 | 1017.2 |
| 20260510172350 | 55 | 210 | 1.0 | 2.0 | 0.00 | 0.00 | 0.00 | 36 | 1017.2 |
| 20260510171846 | 55 | 220 | 5.0 | 6.0 | 0.00 | 0.00 | 0.00 | 39 | 1017.4 |
| 20260510171344 | 54 | 217 | 3.0 | 6.0 | 0.00 | 0.00 | 0.00 | 40 | 1017.5 |
| 20260510170841 | 53 | 237 | 3.0 | 3.0 | 0.00 | 0.00 | 0.00 | 42 | 1017.1 |
| 20260510170337 | 53 | 269 | 10.0 | 11.0 | 0.00 | 0.00 | 0.00 | 43 | 1017.2 |
| 20260510165832 | 54 | 266 | 9.0 | 9.0 | 0.00 | 0.00 | 0.00 | 45 | 1017.4 |
| 20260510165329 | 57 | 275 | 5.0 | 6.0 | 0.00 | 0.00 | 0.00 | 38 | 1017.6 |
| 20260510164827 | 54 | 39 | 0.0 | 2.0 | 0.00 | 0.00 | 0.00 | 38 | 1017.5 |
| 20260510164324 | 53 | 225 | 7.0 | 14.0 | 0.00 | 0.00 | 0.00 | 39 | 1017.4 |
| 20260510163823 | 54 | 268 | 9.0 | 13.0 | 0.00 | 0.00 | 0.00 | 40 | 1017.6 |
| 20260510163320 | 53 | 252 | 7.0 | 8.0 | 0.00 | 0.00 | 0.00 | 42 | 1017.5 |
| 20260510162820 | 57 | 240 | 7.0 | 9.0 | 0.00 | 0.00 | 0.00 | 39 | 1017.7 |
| 20260510162318 | 54 | 195 | 1.0 | 1.0 | 0.00 | 0.00 | 0.00 | 39 | 1017.6 |
| 20260510161813 | 56 | 163 | 3.0 | 3.0 | 0.00 | 0.00 | 0.00 | 38 | 1017.7 |
| 20260510161309 | 56 | 204 | 2.0 | 2.0 | 0.00 | 0.00 | 0.00 | 40 | 1017.8 |
| 20260510160806 | 57 | 210 | 2.0 | 2.0 | 0.00 | 0.00 | 0.00 | 38 | 1017.4 |
| 20260510160303 | 57 | 157 | 1.0 | 2.0 | 0.00 | 0.00 | 0.00 | 38 | 1017.2 |
| 20260510155803 | 56 | 193 | 1.0 | 1.0 | 0.00 | 0.00 | 0.00 | 37 | 1017.4 |
| 20260510155259 | 55 | 93 | 6.0 | 8.0 | 0.00 | 0.00 | 0.00 | 36 | 1017.6 |
| 20260510154755 | 55 | 192 | 2.0 | 3.0 | 0.00 | 0.00 | 0.00 | 41 | 1017.4 |
| 20260510154251 | 54 | 198 | 2.0 | 3.0 | 0.00 | 0.00 | 0.00 | 38 | 1017.2 |
| 20260510153746 | 54 | 181 | 2.0 | 3.0 | 0.00 | 0.00 | 0.00 | 44 | 1017.4 |
| 20260510153242 | 54 | 208 | 3.0 | 3.0 | 0.00 | 0.00 | 0.00 | 40 | 1017.1 |
| 20260510152739 | 52 | 215 | 1.0 | 2.0 | 0.00 | 0.00 | 0.00 | 43 | 1017.1 |
| 20260510152236 | 53 | 292 | 6.0 | 8.0 | 0.00 | 0.00 | 0.00 | 46 | 1017.0 |
| 20260510151732 | 52 | 179 | 1.0 | 2.0 | 0.00 | 0.00 | 0.00 | 40 | 1016.9 |
| 20260510151231 | 52 | 271 | 5.0 | 6.0 | 0.00 | 0.00 | 0.00 | 41 | 1017.1 |
| 20260510150726 | 51 | 251 | 7.0 | 10.0 | 0.00 | 0.00 | 0.00 | 44 | 1017.0 |
| 20260510150222 | 53 | 217 | 4.0 | 5.0 | 0.00 | 0.00 | 0.00 | 41 | 1016.9 |
| 20260510145718 | 54 | 195 | 1.0 | 1.0 | 0.00 | 0.00 | 0.00 | 40 | 1016.7 |
| 20260510145215 | 54 | 234 | 4.0 | 7.0 | 0.00 | 0.00 | 0.00 | 42 | 1016.7 |
| 20260510144711 | 53 | 183 | 1.0 | 1.0 | 0.00 | 0.00 | 0.00 | 40 | 1016.7 |
| 20260510144208 | 54 | 191 | 3.0 | 3.0 | 0.00 | 0.00 | 0.00 | 48 | 1016.8 |
| 20260510143702 | 53 | 201 | 1.0 | 2.0 | 0.00 | 0.00 | 0.00 | 44 | 1016.6 |
| 20260510143159 | 53 | 180 | 1.0 | 2.0 | 0.00 | 0.00 | 0.00 | 45 | 1016.6 |
| 20260510142655 | 53 | 229 | 3.0 | 3.0 | 0.00 | 0.00 | 0.00 | 47 | 1016.6 |
| 20260510142152 | 53 | 220 | 2.0 | 3.0 | 0.00 | 0.00 | 0.00 | 44 | 1016.5 |
| 20260510141649 | 53 | 190 | 1.0 | 1.0 | 0.00 | 0.00 | 0.00 | 42 | 1016.4 |
| 20260510141148 | 53 | 160 | 1.0 | 1.0 | 0.00 | 0.00 | 0.00 | 46 | 1016.6 |
| 20260510140644 | 51 | 228 | 1.0 | 1.0 | 0.00 | 0.00 | 0.00 | 46 | 1016.3 |
| 20260510140143 | 52 | 195 | 1.0 | 2.0 | 0.00 | 0.00 | 0.00 | 45 | 1016.5 |
| 20260510135638 | 52 | 202 | 0.0 | 1.0 | 0.00 | 0.00 | 0.00 | 48 | 1016.3 |
| 20260510135135 | 50 | 188 | 1.0 | 1.0 | 0.00 | 0.00 | 0.00 | 51 | 1016.4 |
| 20260510134632 | 50 | 211 | 3.0 | 3.0 | 0.00 | 0.00 | 0.00 | 50 | 1016.5 |
| 20260510134129 | 49 | 222 | 1.0 | 1.0 | 0.00 | 0.00 | 0.00 | 55 | 1016.4 |
| 20260510133625 | 49 | 254 | 4.0 | 5.0 | 0.00 | 0.00 | 0.00 | 58 | 1016.5 |
| 20260510133121 | 48 | 229 | 4.0 | 5.0 | 0.00 | 0.00 | 0.00 | 54 | 1016.4 |
| 20260510132618 | 48 | 266 | 4.0 | 5.0 | 0.00 | 0.00 | 0.00 | 58 | 1016.4 |
| 20260510132115 | 48 | 230 | 5.0 | 7.0 | 0.00 | 0.00 | 0.00 | 61 | 1016.3 |
| 20260510131612 | 47 | 191 | 1.0 | 1.0 | 0.00 | 0.00 | 0.00 | 57 | 1016.3 |
| 20260510131109 | 48 | 211 | 3.0 | 3.0 | 0.00 | 0.00 | 0.00 | 60 | 1016.3 |
| 20260510130606 | 47 | 186 | 0.0 | 1.0 | 0.00 | 0.00 | 0.00 | 60 | 1016.2 |
| 20260510130104 | 47 | 183 | 1.0 | 1.0 | 0.00 | 0.00 | 0.00 | 60 | 1016.2 |
| 20260510125559 | 47 | 217 | 3.0 | 3.0 | 0.00 | 0.00 | 0.00 | 62 | 1016.1 |
| 20260510125056 | 47 | 217 | 3.0 | 3.0 | 0.00 | 0.00 | 0.00 | 63 | 1016.2 |
| 20260510124552 | 46 | 187 | 0.0 | 0.0 | 0.00 | 0.00 | 0.00 | 65 | 1016.1 |
| 20260510124050 | 46 | 196 | 1.0 | 1.0 | 0.00 | 0.00 | 0.00 | 65 | 1016.0 |
| 20260510123545 | 45 | 186 | 0.0 | 1.0 | 0.00 | 0.00 | 0.00 | 66 | 1016.0 |
| 20260510123041 | 45 | 218 | 2.0 | 2.0 | 0.00 | 0.00 | 0.00 | 66 | 1015.8 |
| 20260510122537 | 45 | 194 | 1.0 | 2.0 | 0.00 | 0.00 | 0.00 | 68 | 1015.9 |
| 20260510122033 | 44 | 206 | 3.0 | 3.0 | 0.00 | 0.00 | 0.00 | 68 | 1015.8 |
| 20260510121531 | 44 | 199 | 2.0 | 2.0 | 0.00 | 0.00 | 0.00 | 69 | 1015.9 |
| 20260510121028 | 43 | 186 | 0.0 | 0.0 | 0.00 | 0.00 | 0.00 | 70 | 1015.9 |
| 20260510120525 | 43 | 193 | 0.0 | 0.0 | 0.00 | 0.00 | 0.00 | 75 | 1015.5 |
| 20260510120021 | 42 | 200 | 0.0 | 0.0 | 0.00 | 0.00 | 0.00 | 78 | 1015.6 |
| 20260510115518 | 41 | 195 | 0.0 | 1.0 | 0.00 | 0.00 | 0.00 | 81 | 1015.5 |
| 20260510115014 | 40 | 193 | 0.0 | 0.0 | 0.00 | 0.00 | 0.00 | 85 | 1015.3 |
| 20260510114510 | 39 | 192 | 0.0 | 0.0 | 0.00 | 0.00 | 0.00 | 88 | 1015.1 |
| 20260510114007 | 39 | 183 | 0.0 | 0.0 | 0.00 | 0.00 | 0.00 | 88 | 1015.0 |
| 20260510113502 | 38 | 186 | 0.0 | 0.0 | 0.00 | 0.00 | 0.00 | 89 | 1015.1 |
| 20260510113000 | 38 | 189 | 0.0 | 0.0 | 0.00 | 0.00 | 0.00 | 90 | 1015.1 |
| 20260510112456 | 38 | 186 | 0.0 | 0.0 | 0.00 | 0.00 | 0.00 | 90 | 1015.1 |
| 20260510111953 | 37 | 175 | 0.0 | 0.0 | 0.00 | 0.00 | 0.00 | 90 | 1014.6 |
| 20260510111449 | 37 | 163 | 0.0 | 0.0 | 0.00 | 0.00 | 0.00 | 90 | 1015.0 |
| 20260510110945 | 36 | 172 | 0.0 | 0.0 | 0.00 | 0.00 | 0.00 | 90 | 1015.0 |
| 20260510110442 | 36 | 160 | 0.0 | 0.0 | 0.00 | 0.00 | 0.00 | 90 | 1015.1 |
| 20260510105937 | 36 | 159 | 0.0 | 0.0 | 0.00 | 0.00 | 0.00 | 89 | 1014.8 |
| 20260510105432 | 36 | 173 | 0.0 | 0.0 | 0.00 | 0.00 | 0.00 | 89 | 1014.8 |
| 20260510104928 | 36 | 182 | 0.0 | 0.0 | 0.00 | 0.00 | 0.00 | 89 | 1014.9 |
| 20260510104425 | 36 | 176 | 0.0 | 0.0 | 0.00 | 0.00 | 0.00 | 88 | 1014.5 |
| 20260510103922 | 36 | 153 | 0.0 | 0.0 | 0.00 | 0.00 | 0.00 | 87 | 1014.4 |
| 20260510103420 | 36 | 149 | 0.0 | 0.0 | 0.00 | 0.00 | 0.00 | 87 | 1014.3 |
| 20260510102914 | 36 | 155 | 0.0 | 0.0 | 0.00 | 0.00 | 0.00 | 87 | 1014.4 |
| 20260510102410 | 37 | 156 | 0.0 | 0.0 | 0.00 | 0.00 | 0.00 | 87 | 1014.3 |
| 20260510101908 | 37 | 189 | 0.0 | 0.0 | 0.00 | 0.00 | 0.00 | 86 | 1014.3 |
| 20260510101406 | 37 | 168 | 0.0 | 0.0 | 0.00 | 0.00 | 0.00 | 86 | 1014.1 |
| 20260510100902 | 37 | 157 | 0.0 | 0.0 | 0.00 | 0.00 | 0.00 | 85 | 1014.2 |
| 20260510100400 | 37 | 150 | 0.0 | 0.0 | 0.00 | 0.00 | 0.00 | 84 | 1013.9 |
| 20260510095856 | 37 | 172 | 0.0 | 0.0 | 0.00 | 0.00 | 0.00 | 83 | 1014.2 |
| 20260510095350 | 36 | 183 | 0.0 | 0.0 | 0.00 | 0.00 | 0.00 | 83 | 1014.1 |
| 20260510094850 | 36 | 170 | 0.0 | 0.0 | 0.00 | 0.00 | 0.00 | 82 | 1014.1 |
| 20260510094345 | 36 | 141 | 0.0 | 0.0 | 0.00 | 0.00 | 0.00 | 82 | 1013.9 |
| 20260510093842 | 36 | 163 | 0.0 | 0.0 | 0.00 | 0.00 | 0.00 | 82 | 1013.7 |
| 20260510093338 | 36 | 185 | 0.0 | 0.0 | 0.00 | 0.00 | 0.00 | 82 | 1013.8 |
| 20260510092834 | 36 | 154 | 0.0 | 0.0 | 0.00 | 0.00 | 0.00 | 82 | 1013.8 |
| 20260510092330 | 37 | 148 | 0.0 | 0.0 | 0.00 | 0.00 | 0.00 | 82 | 1013.9 |
| 20260510091826 | 37 | 143 | 0.0 | 0.0 | 0.00 | 0.00 | 0.00 | 82 | 1013.7 |
| 20260510091323 | 37 | 177 | 0.0 | 0.0 | 0.00 | 0.00 | 0.00 | 81 | 1013.6 |
| 20260510090820 | 37 | 177 | 0.0 | 0.0 | 0.00 | 0.00 | 0.00 | 81 | 1013.7 |
| 20260510090317 | 37 | 171 | 0.0 | 0.0 | 0.00 | 0.00 | 0.00 | 80 | 1013.6 |
| 20260510085813 | 38 | 155 | 1.0 | 1.0 | 0.00 | 0.00 | 0.00 | 80 | 1013.4 |
| 20260510085313 | 38 | 135 | 1.0 | 1.0 | 0.00 | 0.00 | 0.00 | 79 | 1013.2 |
| 20260510084808 | 38 | 137 | 1.0 | 1.0 | 0.00 | 0.00 | 0.00 | 78 | 1013.1 |
| 20260510084306 | 38 | 165 | 0.0 | 1.0 | 0.00 | 0.00 | 0.00 | 77 | 1013.0 |
| 20260510083803 | 38 | 170 | 1.0 | 1.0 | 0.00 | 0.00 | 0.00 | 76 | 1013.2 |
| 20260510083259 | 39 | 140 | 1.0 | 1.0 | 0.00 | 0.00 | 0.00 | 75 | 1013.1 |
| 20260510082755 | 39 | 136 | 1.0 | 1.0 | 0.00 | 0.00 | 0.00 | 75 | 1012.8 |
| 20260510082252 | 39 | 157 | 1.0 | 1.0 | 0.00 | 0.00 | 0.00 | 74 | 1012.6 |
| 20260510081750 | 40 | 139 | 1.0 | 1.0 | 0.00 | 0.00 | 0.00 | 73 | 1012.8 |
| 20260510081247 | 40 | 180 | 0.0 | 0.0 | 0.00 | 0.00 | 0.00 | 73 | 1012.5 |
| 20260510080743 | 41 | 192 | 0.0 | 0.0 | 0.00 | 0.00 | 0.00 | 72 | 1012.2 |
| 20260510080238 | 42 | 187 | 0.0 | 0.0 | 0.00 | 0.00 | 0.00 | 71 | 1012.2 |
| 20260510075735 | 41 | 179 | 0.0 | 0.0 | 0.00 | 0.00 | 0.00 | 69 | 1012.3 |
| 20260510075233 | 41 | 183 | 0.0 | 0.0 | 0.00 | 0.00 | 0.00 | 70 | 1012.6 |
| 20260510074730 | 41 | 190 | 0.0 | 0.0 | 0.00 | 0.00 | 0.00 | 69 | 1012.2 |
| 20260510074226 | 41 | 184 | 0.0 | 0.0 | 0.00 | 0.00 | 0.00 | 69 | 1012.6 |
| 20260510073722 | 42 | 187 | 0.0 | 0.0 | 0.00 | 0.00 | 0.00 | 69 | 1012.2 |
| 20260510073218 | 42 | 183 | 0.0 | 0.0 | 0.00 | 0.00 | 0.00 | 69 | 1012.2 |
| 20260510072714 | 42 | 195 | 0.0 | 0.0 | 0.00 | 0.00 | 0.00 | 69 | 1012.0 |
| 20260510072211 | 42 | 187 | 0.0 | 0.0 | 0.00 | 0.00 | 0.00 | 68 | 1012.2 |
| 20260510071708 | 42 | 187 | 0.0 | 0.0 | 0.00 | 0.00 | 0.00 | 68 | 1011.9 |
| 20260510071204 | 43 | 186 | 0.0 | 0.0 | 0.00 | 0.00 | 0.00 | 67 | 1011.7 |
| 20260510070702 | 43 | 188 | 0.0 | 0.0 | 0.00 | 0.00 | 0.00 | 65 | 1012.0 |
| 20260510070159 | 44 | 181 | 0.0 | 0.0 | 0.00 | 0.00 | 0.00 | 65 | 1011.8 |
| 20260510065654 | 44 | 200 | 0.0 | 0.0 | 0.00 | 0.00 | 0.00 | 64 | 1011.7 |
| 20260510065150 | 44 | 63 | 2.0 | 5.0 | 0.00 | 0.00 | 0.00 | 65 | 1011.5 |
| 20260510064647 | 44 | 202 | 0.0 | 0.0 | 0.00 | 0.00 | 0.00 | 65 | 1011.6 |
| 20260510064144 | 44 | 37 | 2.0 | 2.0 | 0.00 | 0.00 | 0.00 | 67 | 1011.3 |
| 20260510063642 | 43 | 170 | 0.0 | 0.0 | 0.00 | 0.00 | 0.00 | 69 | 1011.4 |
| 20260510063138 | 43 | 196 | 0.0 | 1.0 | 0.00 | 0.00 | 0.00 | 72 | 1011.3 |
| 20260510062634 | 42 | 182 | 0.0 | 0.0 | 0.00 | 0.00 | 0.00 | 75 | 1011.1 |
| 20260510062130 | 42 | 184 | 0.0 | 0.0 | 0.00 | 0.00 | 0.00 | 75 | 1011.2 |
| 20260510061625 | 43 | 190 | 0.0 | 0.0 | 0.00 | 0.00 | 0.00 | 75 | 1011.0 |
| 20260510061124 | 43 | 184 | 0.0 | 0.0 | 0.00 | 0.00 | 0.00 | 75 | 1010.8 |
| 20260510060619 | 43 | 186 | 0.0 | 0.0 | 0.00 | 0.00 | 0.00 | 75 | 1010.7 |
| 20260510060116 | 43 | 184 | 0.0 | 0.0 | 0.00 | 0.00 | 0.00 | 74 | 1010.6 |
| 20260510055612 | 44 | 187 | 0.0 | 0.0 | 0.00 | 0.00 | 0.00 | 74 | 1010.4 |
| 20260510055110 | 44 | 188 | 0.0 | 0.0 | 0.00 | 0.00 | 0.00 | 73 | 1010.4 |
| 20260510054606 | 44 | 185 | 0.0 | 0.0 | 0.00 | 0.00 | 0.00 | 73 | 1010.5 |
| 20260510054101 | 44 | 187 | 0.0 | 0.0 | 0.00 | 0.00 | 0.00 | 73 | 1010.3 |
| 20260510053601 | 45 | 188 | 0.0 | 0.0 | 0.00 | 0.00 | 0.00 | 73 | 1010.3 |
| 20260510053058 | 45 | 189 | 0.0 | 0.0 | 0.00 | 0.00 | 0.00 | 73 | 1010.3 |
| 20260510052553 | 45 | 183 | 0.0 | 0.0 | 0.00 | 0.00 | 0.00 | 73 | 1010.2 |
| 20260510052050 | 45 | 187 | 0.0 | 0.0 | 0.00 | 0.00 | 0.00 | 75 | 1010.1 |
| 20260510051545 | 45 | 189 | 0.0 | 0.0 | 0.00 | 0.00 | 0.00 | 76 | 1010.1 |
| 20260510051043 | 45 | 186 | 0.0 | 0.0 | 0.00 | 0.00 | 0.00 | 77 | 1009.9 |
| 20260510050540 | 45 | 180 | 0.0 | 0.0 | 0.00 | 0.00 | 0.00 | 78 | 1009.8 |
| 20260510050037 | 45 | 188 | 0.0 | 0.0 | 0.00 | 0.00 | 0.00 | 79 | 1009.6 |
| 20260510045534 | 45 | 160 | 0.0 | 0.0 | 0.00 | 0.00 | 0.00 | 80 | 1009.9 |
| 20260510045030 | 45 | 181 | 0.0 | 0.0 | 0.00 | 0.00 | 0.00 | 80 | 1009.6 |
| 20260510044527 | 45 | 192 | 0.0 | 0.0 | 0.00 | 0.00 | 0.00 | 79 | 1009.2 |
| 20260510044025 | 46 | 167 | 0.0 | 0.0 | 0.00 | 0.00 | 0.00 | 78 | 1009.2 |
| 20260510043520 | 46 | 179 | 0.0 | 0.0 | 0.00 | 0.00 | 0.00 | 77 | 1009.3 |
| 20260510043015 | 46 | 164 | 0.0 | 0.0 | 0.00 | 0.00 | 0.00 | 75 | 1008.9 |
| 20260510042509 | 47 | 170 | 0.0 | 0.0 | 0.00 | 0.00 | 0.00 | 74 | 1008.9 |
| 20260510042005 | 47 | 150 | 1.0 | 1.0 | 0.00 | 0.00 | 0.00 | 73 | 1008.9 |
| 20260510041502 | 47 | 152 | 1.0 | 1.0 | 0.00 | 0.00 | 0.00 | 72 | 1008.9 |
| 20260510041000 | 48 | 153 | 1.0 | 1.0 | 0.00 | 0.00 | 0.00 | 71 | 1008.7 |
| 20260510040456 | 48 | 193 | 0.0 | 0.0 | 0.00 | 0.00 | 0.00 | 70 | 1008.7 |
| 20260510035952 | 48 | 151 | 1.0 | 1.0 | 0.00 | 0.00 | 0.00 | 70 | 1008.5 |
| 20260510035449 | 49 | 169 | 0.0 | 0.0 | 0.00 | 0.00 | 0.00 | 68 | 1008.2 |
| 20260510034948 | 49 | 140 | 1.0 | 1.0 | 0.00 | 0.00 | 0.00 | 68 | 1008.4 |
| 20260510034447 | 50 | 129 | 1.0 | 1.0 | 0.00 | 0.00 | 0.00 | 67 | 1008.4 |
| 20260510033943 | 50 | 164 | 0.0 | 1.0 | 0.00 | 0.00 | 0.00 | 65 | 1008.3 |
| 20260510033439 | 50 | 182 | 0.0 | 0.0 | 0.00 | 0.00 | 0.00 | 65 | 1008.1 |
| 20260510032937 | 50 | 193 | 0.0 | 0.0 | 0.00 | 0.00 | 0.00 | 65 | 1008.1 |
| 20260510032433 | 50 | 182 | 0.0 | 0.0 | 0.00 | 0.00 | 0.00 | 64 | 1008.1 |
| 20260510031928 | 51 | 188 | 0.0 | 0.0 | 0.00 | 0.00 | 0.00 | 64 | 1008.0 |
| 20260510031424 | 51 | 167 | 0.0 | 0.0 | 0.00 | 0.00 | 0.00 | 63 | 1007.7 |
| 20260510030919 | 51 | 189 | 0.0 | 0.0 | 0.00 | 0.00 | 0.00 | 62 | 1008.1 |
| 20260510030415 | 51 | 181 | 0.0 | 0.0 | 0.00 | 0.00 | 0.00 | 63 | 1007.9 |
| 20260510025913 | 52 | 188 | 0.0 | 0.0 | 0.00 | 0.00 | 0.00 | 62 | 1007.7 |
| 20260510025410 | 52 | 188 | 0.0 | 0.0 | 0.00 | 0.00 | 0.00 | 62 | 1007.6 |
| 20260510024908 | 52 | 189 | 0.0 | 0.0 | 0.00 | 0.00 | 0.00 | 61 | 1007.6 |
| 20260510024404 | 53 | 186 | 0.0 | 0.0 | 0.00 | 0.00 | 0.00 | 60 | 1007.5 |
| 20260510023900 | 53 | 184 | 0.0 | 0.0 | 0.00 | 0.00 | 0.00 | 59 | 1007.4 |
| 20260510023356 | 53 | 192 | 0.0 | 0.0 | 0.00 | 0.00 | 0.00 | 58 | 1007.2 |
| 20260510022854 | 54 | 186 | 0.0 | 0.0 | 0.00 | 0.00 | 0.00 | 57 | 1007.2 |
| 20260510022353 | 55 | 196 | 0.0 | 0.0 | 0.00 | 0.00 | 0.00 | 56 | 1007.0 |
| 20260510021851 | 55 | 188 | 0.0 | 0.0 | 0.00 | 0.00 | 0.00 | 56 | 1007.2 |
| 20260510021350 | 55 | 189 | 0.0 | 0.0 | 0.00 | 0.00 | 0.00 | 55 | 1007.1 |
| 20260510020846 | 56 | 187 | 0.0 | 0.0 | 0.00 | 0.00 | 0.00 | 56 | 1007.0 |
| 20260510020346 | 56 | 142 | 1.0 | 1.0 | 0.00 | 0.00 | 0.00 | 53 | 1007.1 |
| 20260510015842 | 56 | 182 | 0.0 | 0.0 | 0.00 | 0.00 | 0.00 | 53 | 1006.7 |
| 20260510015338 | 57 | 190 | 0.0 | 1.0 | 0.00 | 0.00 | 0.00 | 53 | 1006.8 |
| 20260510014833 | 57 | 205 | 0.0 | 0.0 | 0.00 | 0.00 | 0.00 | 53 | 1006.6 |
| 20260510014331 | 57 | 176 | 1.0 | 2.0 | 0.00 | 0.00 | 0.00 | 52 | 1006.3 |
| 20260510013827 | 57 | 197 | 3.0 | 5.0 | 0.00 | 0.00 | 0.00 | 50 | 1006.3 |
| 20260510013323 | 58 | 194 | 0.0 | 1.0 | 0.00 | 0.00 | 0.00 | 50 | 1006.4 |
| 20260510012818 | 58 | 214 | 0.0 | 1.0 | 0.00 | 0.00 | 0.00 | 50 | 1006.0 |
| 20260510012317 | 58 | 191 | 0.0 | 1.0 | 0.00 | 0.00 | 0.00 | 49 | 1005.8 |
| 20260510011812 | 58 | 192 | 0.0 | 1.0 | 0.00 | 0.00 | 0.00 | 49 | 1005.5 |
| 20260510011308 | 59 | 104 | 0.0 | 1.0 | 0.00 | 0.00 | 0.00 | 48 | 1005.3 |
| 20260510010805 | 59 | 200 | 0.0 | 0.0 | 0.00 | 0.00 | 0.00 | 47 | 1005.3 |
| 20260510010302 | 60 | 204 | 2.0 | 2.0 | 0.00 | 0.00 | 0.00 | 46 | 1005.0 |
| 20260510005759 | 60 | 124 | 1.0 | 1.0 | 0.00 | 0.00 | 0.00 | 45 | 1005.1 |
| 20260510005255 | 60 | 195 | 1.0 | 1.0 | 0.00 | 0.00 | 0.00 | 46 | 1004.8 |
| 20260510004753 | 60 | 179 | 1.0 | 2.0 | 0.00 | 0.00 | 0.00 | 47 | 1004.5 |
| 20260510004250 | 61 | 188 | 0.0 | 0.0 | 0.00 | 0.00 | 0.00 | 45 | 1004.4 |
| 20260510003748 | 61 | 213 | 1.0 | 1.0 | 0.00 | 0.00 | 0.00 | 44 | 1004.2 |
| 20260510003244 | 62 | 203 | 1.0 | 1.0 | 0.00 | 0.00 | 0.00 | 47 | 1004.3 |
| 20260510002743 | 62 | 222 | 1.0 | 2.0 | 0.00 | 0.00 | 0.00 | 48 | 1004.1 |
| 20260510002241 | 62 | 188 | 1.0 | 1.0 | 0.00 | 0.00 | 0.00 | 47 | 1003.8 |
| 20260510001737 | 63 | 179 | 0.0 | 1.0 | 0.00 | 0.00 | 0.00 | 47 | 1003.8 |
| 20260510001236 | 63 | 153 | 0.0 | 0.0 | 0.00 | 0.00 | 0.00 | 47 | 1003.3 |
| 20260510000731 | 64 | 223 | 5.0 | 6.0 | 0.00 | 0.00 | 0.00 | 47 | 1003.3 |
| 20260510000229 | 64 | 238 | 3.0 | 6.0 | 0.00 | 0.00 | 0.00 | 46 | 1003.2 |
| 20260509235725 | 64 | 257 | 8.0 | 11.0 | 0.00 | 0.00 | 0.00 | 46 | 1003.3 |
| 20260509235222 | 65 | 223 | 3.0 | 3.0 | 0.00 | 0.00 | 0.00 | 47 | 1003.3 |
| 20260509234718 | 65 | 206 | 1.0 | 2.0 | 0.00 | 0.00 | 0.00 | 45 | 1003.3 |
| 20260509234215 | 65 | 215 | 2.0 | 3.0 | 0.00 | 0.00 | 0.00 | 47 | 1003.4 |
| 20260509233713 | 65 | 316 | 2.0 | 3.0 | 0.00 | 0.00 | 0.00 | 47 | 1003.0 |
| 20260509233210 | 64 | 241 | 5.0 | 7.0 | 0.00 | 0.00 | 0.00 | 46 | 1002.9 |
| 20260509232707 | 64 | 276 | 4.0 | 7.0 | 0.00 | 0.00 | 0.00 | 49 | 1002.6 |
| 20260509232204 | 65 | 222 | 1.0 | 2.0 | 0.00 | 0.00 | 0.00 | 46 | 1002.8 |
| 20260509231700 | 65 | 204 | 1.0 | 2.0 | 0.00 | 0.00 | 0.00 | 47 | 1002.8 |
| 20260509231158 | 65 | 223 | 3.0 | 5.0 | 0.00 | 0.00 | 0.00 | 48 | 1002.7 |